createdAt,value
2023-02-18T00:01:37.811Z,100787.00
2023-02-18T00:04:07.936Z,100787.00
2023-02-18T00:06:39.412Z,100777.00
2023-02-18T00:09:09.813Z,100786.00
2023-02-18T00:11:41.487Z,100795.00
2023-02-18T00:14:16.982Z,100792.00
2023-02-18T00:16:50.009Z,100782.00
2023-02-18T00:19:22.617Z,100783.00
2023-02-18T00:21:52.844Z,100792.00
2023-02-18T00:24:22.974Z,100789.00
2023-02-18T00:26:54.742Z,100792.00
2023-02-18T00:29:24.851Z,100778.00
2023-02-18T00:31:57.766Z,100800.00
2023-02-18T00:34:28.090Z,100787.00
2023-02-18T00:36:58.286Z,100791.00
2023-02-18T00:39:28.431Z,100784.00
2023-02-18T00:41:58.832Z,100791.00
2023-02-18T00:44:28.703Z,100794.00
2023-02-18T00:47:01.226Z,100797.00
2023-02-18T00:49:31.315Z,100795.00
2023-02-18T00:52:01.246Z,100800.00
2023-02-18T00:54:31.152Z,100781.00
2023-02-18T00:57:01.006Z,100794.00
2023-02-18T00:59:30.915Z,100793.00
2023-02-18T01:02:03.361Z,100796.00
2023-02-18T01:04:33.261Z,100811.00
2023-02-18T01:07:03.200Z,100806.00
2023-02-18T01:09:33.076Z,100800.00
2023-02-18T01:12:03.244Z,100793.00
2023-02-18T01:14:33.192Z,100788.00
2023-02-18T01:17:05.875Z,100792.00
2023-02-18T01:19:36.019Z,100802.00
2023-02-18T01:22:06.854Z,100793.00
2023-02-18T01:24:38.489Z,100810.00
2023-02-18T01:27:08.601Z,100785.00
2023-02-18T01:29:39.122Z,100790.00
2023-02-18T01:32:12.277Z,100787.00
2023-02-18T01:34:42.467Z,100797.00
2023-02-18T01:37:12.385Z,100803.00
2023-02-18T01:39:42.727Z,100801.00
2023-02-18T01:42:22.282Z,100800.00
2023-02-18T01:44:52.803Z,100782.00
2023-02-18T01:47:25.572Z,100790.00
2023-02-18T01:49:57.267Z,100799.00
2023-02-18T01:52:32.521Z,100798.00
2023-02-18T01:55:02.933Z,100787.00
2023-02-18T01:57:37.374Z,100784.00
2023-02-18T02:00:17.088Z,100800.00
2023-02-18T02:02:52.260Z,100805.00
2023-02-18T02:05:24.471Z,100775.00
2023-02-18T02:07:57.125Z,100790.00
2023-02-18T02:10:27.607Z,100780.00
2023-02-18T02:13:04.630Z,100783.00
2023-02-18T02:15:41.859Z,100795.00
2023-02-18T02:18:35.140Z,100787.00
2023-02-18T02:21:50.389Z,100792.00
2023-02-18T02:25:04.079Z,100804.00
2023-02-18T02:27:57.482Z,100801.00
2023-02-18T02:31:03.662Z,100791.00
2023-02-18T02:34:27.277Z,100797.00
2023-02-18T02:37:11.418Z,100804.00
2023-02-18T02:39:50.631Z,100799.00
2023-02-18T02:42:29.252Z,100795.00
2023-02-18T02:45:07.160Z,100803.00
2023-02-18T02:47:44.940Z,100797.00
2023-02-18T02:50:20.917Z,100807.00
2023-02-18T02:53:01.040Z,100814.00
2023-02-18T02:55:31.074Z,100800.00
2023-02-18T02:58:01.105Z,100805.00
2023-02-18T03:00:45.708Z,100808.00
2023-02-18T03:03:54.068Z,100824.00
2023-02-18T03:06:57.448Z,100809.00
2023-02-18T03:09:43.516Z,100821.00
2023-02-18T03:12:20.386Z,100823.00
2023-02-18T03:14:59.302Z,100820.00
2023-02-18T03:17:33.995Z,100829.00
2023-02-18T03:20:10.452Z,100813.00
2023-02-18T03:22:45.121Z,100816.00
2023-02-18T03:25:19.037Z,100826.00
2023-02-18T03:27:55.226Z,100818.00
2023-02-18T03:30:32.064Z,100818.00
2023-02-18T03:33:07.537Z,100813.00
2023-02-18T03:35:40.056Z,100827.00
2023-02-18T03:38:19.775Z,100813.00
2023-02-18T03:40:52.668Z,100816.00
2023-02-18T03:43:22.593Z,100820.00
2023-02-18T03:45:52.563Z,100809.00
2023-02-18T03:48:22.564Z,100819.00
2023-02-18T03:50:52.585Z,100823.00
2023-02-18T03:53:23.046Z,100828.00
2023-02-18T03:55:55.554Z,100828.00
2023-02-18T03:58:25.630Z,100837.00
2023-02-18T04:00:55.684Z,100827.00
2023-02-18T04:03:25.710Z,100818.00
2023-02-18T04:05:55.792Z,100823.00
2023-02-18T04:08:26.028Z,100817.00
2023-02-18T04:10:58.630Z,100827.00
2023-02-18T04:13:28.513Z,100825.00
2023-02-18T04:15:58.558Z,100836.00
2023-02-18T04:18:28.773Z,100844.00
2023-02-18T04:20:58.655Z,100835.00
2023-02-18T04:23:28.515Z,100835.00
2023-02-18T04:26:01.333Z,100838.00
2023-02-18T04:28:31.294Z,100853.00
2023-02-18T04:31:01.192Z,100839.00
2023-02-18T04:33:31.190Z,100852.00
2023-02-18T04:36:01.107Z,100857.00
2023-02-18T04:38:30.977Z,100859.00
2023-02-18T04:41:03.604Z,100866.00
2023-02-18T04:43:33.622Z,100854.00
2023-02-18T04:46:03.720Z,100868.00
2023-02-18T04:48:35.139Z,100863.00
2023-02-18T04:51:05.440Z,100859.00
2023-02-18T04:53:35.435Z,100868.00
2023-02-18T04:56:09.347Z,100865.00
2023-02-18T04:58:39.532Z,100863.00
2023-02-18T05:01:09.663Z,100866.00
2023-02-18T05:03:39.671Z,100866.00
2023-02-18T05:06:10.601Z,100861.00
2023-02-18T05:08:40.731Z,100861.00
2023-02-18T05:11:13.456Z,100855.00
2023-02-18T05:13:43.338Z,100855.00
2023-02-18T05:16:14.006Z,100861.00
2023-02-18T05:18:44.378Z,100836.00
2023-02-18T05:21:14.821Z,100850.00
2023-02-18T05:23:44.674Z,100849.00
2023-02-18T05:26:17.213Z,100858.00
2023-02-18T05:28:47.127Z,100850.00
2023-02-18T05:31:17.127Z,100854.00
2023-02-18T05:33:47.036Z,100836.00
2023-02-18T05:36:16.972Z,100835.00
2023-02-18T05:38:46.933Z,100838.00
2023-02-18T05:41:19.643Z,100837.00
2023-02-18T05:44:02.384Z,100825.00
2023-02-18T05:46:32.411Z,100828.00
2023-02-18T05:49:02.567Z,100825.00
2023-02-18T05:51:32.637Z,100828.00
2023-02-18T05:54:03.334Z,100830.00
2023-02-18T05:56:36.118Z,100836.00
2023-02-18T05:59:06.209Z,100835.00
2023-02-18T06:01:36.448Z,100815.00
2023-02-18T06:04:06.612Z,100835.00
2023-02-18T06:06:36.810Z,100830.00
2023-02-18T06:09:08.934Z,100834.00
2023-02-18T06:11:42.015Z,100819.00
2023-02-18T06:14:12.367Z,100834.00
2023-02-18T06:16:42.606Z,100853.00
2023-02-18T06:19:12.800Z,100846.00
2023-02-18T06:21:42.963Z,100844.00
2023-02-18T06:24:13.408Z,100844.00
2023-02-18T06:26:46.130Z,100835.00
2023-02-18T06:29:16.076Z,100835.00
2023-02-18T06:31:46.196Z,100844.00
2023-02-18T06:34:16.629Z,100843.00
2023-02-18T06:36:46.731Z,100836.00
2023-02-18T06:39:16.774Z,100847.00
2023-02-18T06:41:49.478Z,100844.00
2023-02-18T06:44:19.681Z,100825.00
2023-02-18T06:46:49.916Z,100818.00
2023-02-18T06:49:20.508Z,100815.00
2023-02-18T06:51:51.085Z,100812.00
2023-02-18T06:54:21.245Z,100821.00
2023-02-18T06:56:54.000Z,100815.00
2023-02-18T06:59:23.957Z,100821.00
2023-02-18T07:01:54.326Z,100832.00
2023-02-18T07:04:24.304Z,100824.00
2023-02-18T07:06:54.576Z,100822.00
2023-02-18T07:09:24.846Z,100830.00
2023-02-18T07:11:57.641Z,100827.00
2023-02-18T07:14:28.541Z,100827.00
2023-02-18T07:16:58.798Z,100826.00
2023-02-18T07:19:28.895Z,100822.00
2023-02-18T07:21:59.057Z,100816.00
2023-02-18T07:24:29.307Z,100826.00
2023-02-18T07:27:02.169Z,100824.00
2023-02-18T07:29:32.281Z,100813.00
2023-02-18T07:32:02.372Z,100822.00
2023-02-18T07:34:32.619Z,100813.00
2023-02-18T07:37:02.938Z,100811.00
2023-02-18T07:39:32.941Z,100812.00
2023-02-18T07:42:06.058Z,100808.00
2023-02-18T07:44:36.761Z,100813.00
2023-02-18T07:47:08.259Z,100814.00
2023-02-18T07:49:38.532Z,100800.00
2023-02-18T07:52:08.846Z,100801.00
2023-02-18T07:54:38.990Z,100793.00
2023-02-18T07:57:11.826Z,100791.00
2023-02-18T07:59:42.325Z,100793.00
2023-02-18T08:02:19.036Z,100782.00
2023-02-18T08:04:49.151Z,100797.00
2023-02-18T08:07:21.584Z,100802.00
2023-02-18T08:09:52.020Z,100795.00
2023-02-18T08:12:24.786Z,100784.00
2023-02-18T08:14:55.082Z,100783.00
2023-02-18T08:17:25.285Z,100778.00
2023-02-18T08:19:55.664Z,100764.00
2023-02-18T08:22:25.803Z,100763.00
2023-02-18T08:24:58.670Z,100753.00
2023-02-18T08:27:31.444Z,100755.00
2023-02-18T08:30:01.749Z,100731.00
2023-02-18T08:32:32.763Z,100748.00
2023-02-18T08:35:02.967Z,100750.00
2023-02-18T08:37:52.775Z,100736.00
2023-02-18T08:40:24.156Z,100737.00
2023-02-18T08:42:56.821Z,100716.00
2023-02-18T08:45:27.128Z,100732.00
2023-02-18T08:48:17.685Z,100735.00
2023-02-18T08:50:47.736Z,100727.00
2023-02-18T08:53:18.083Z,100736.00
2023-02-18T08:55:49.090Z,100725.00
2023-02-18T08:58:21.798Z,100725.00
2023-02-18T09:00:52.128Z,100720.00
2023-02-18T09:03:22.591Z,100732.00
2023-02-18T09:05:52.973Z,100733.00
2023-02-18T09:08:23.285Z,100719.00
2023-02-18T09:10:53.487Z,100728.00
2023-02-18T09:13:26.692Z,100721.00
2023-02-18T09:16:01.848Z,100721.00
2023-02-18T09:18:32.236Z,100716.00
2023-02-18T09:21:03.454Z,100721.00
2023-02-18T09:23:36.551Z,100720.00
2023-02-18T09:26:09.709Z,100711.00
2023-02-18T09:28:43.004Z,100705.00
2023-02-18T09:31:17.081Z,100709.00
2023-02-18T09:33:51.020Z,100708.00
2023-02-18T09:36:22.087Z,100693.00
2023-02-18T09:38:52.944Z,100678.00
2023-02-18T09:41:40.922Z,100689.00
2023-02-18T09:44:21.635Z,100683.00
2023-02-18T09:46:56.597Z,100689.00
2023-02-18T09:49:30.450Z,100676.00
2023-02-18T09:52:06.496Z,100677.00
2023-02-18T09:54:36.809Z,100680.00
2023-02-18T09:57:09.229Z,100664.00
2023-02-18T09:59:42.661Z,100656.00
2023-02-18T10:02:20.031Z,100644.00
2023-02-18T10:04:54.270Z,100641.00
2023-02-18T10:07:30.857Z,100627.00
2023-02-18T10:10:08.480Z,100609.00
2023-02-18T10:12:39.161Z,100597.00
2023-02-18T10:15:25.302Z,100599.00
2023-02-18T10:17:56.048Z,100606.00
2023-02-18T10:20:30.229Z,100605.00
2023-02-18T10:23:05.487Z,100608.00
2023-02-18T10:25:42.257Z,100593.00
2023-02-18T10:28:12.968Z,100587.00
2023-02-18T10:30:54.514Z,100572.00
2023-02-18T10:33:36.489Z,100566.00
2023-02-18T10:36:26.502Z,100542.00
2023-02-18T10:39:32.258Z,100532.00
2023-02-18T10:42:22.117Z,100511.00
2023-02-18T10:45:03.484Z,100510.00
2023-02-18T10:47:43.348Z,100518.00
2023-02-18T10:50:21.592Z,100495.00
2023-02-18T10:52:55.393Z,100468.00
2023-02-18T10:55:40.252Z,100468.00
2023-02-18T10:58:31.291Z,100453.00
2023-02-18T11:01:04.983Z,100457.00
2023-02-18T11:03:49.941Z,100456.00
2023-02-18T11:06:25.144Z,100446.00
2023-02-18T11:08:57.774Z,100447.00
2023-02-18T11:11:32.645Z,100430.00
2023-02-18T11:14:06.076Z,100431.00
2023-02-18T11:16:49.235Z,100407.00
2023-02-18T11:19:39.955Z,100399.00
2023-02-18T11:22:19.162Z,100378.00
2023-02-18T11:24:50.995Z,100379.00
2023-02-18T11:27:27.936Z,100368.00
2023-02-18T11:30:07.611Z,100355.00
2023-02-18T11:32:39.402Z,100348.00
2023-02-18T11:35:22.128Z,100352.00
2023-02-18T11:37:53.299Z,100337.00
2023-02-18T11:40:27.163Z,100341.00
2023-02-18T11:43:10.794Z,100334.00
2023-02-18T11:45:40.899Z,100309.00
2023-02-18T11:48:18.668Z,100307.00
2023-02-18T11:50:56.266Z,100298.00
2023-02-18T11:53:33.484Z,100299.00
2023-02-18T11:56:07.122Z,100282.00
2023-02-18T11:58:43.044Z,100278.00
2023-02-18T12:01:22.130Z,100289.00
2023-02-18T12:03:59.918Z,100266.00
2023-02-18T12:06:38.265Z,100248.00
2023-02-18T12:09:17.254Z,100280.00
2023-02-18T12:11:53.529Z,100275.00
2023-02-18T12:14:26.281Z,100246.00
2023-02-18T12:17:51.430Z,100223.00
2023-02-18T12:20:44.754Z,100212.00
2023-02-18T12:23:26.113Z,100228.00
2023-02-18T12:26:05.857Z,100213.00
2023-02-18T12:28:51.669Z,100209.00
2023-02-18T12:31:57.937Z,100201.00
2023-02-18T12:34:47.547Z,100191.00
2023-02-18T12:37:51.402Z,100196.00
2023-02-18T12:40:43.686Z,100197.00
2023-02-18T12:43:28.208Z,100177.00
2023-02-18T12:46:21.012Z,100170.00
2023-02-18T12:49:17.660Z,100167.00
2023-02-18T12:52:03.754Z,100159.00
2023-02-18T12:55:04.060Z,100156.00
2023-02-18T12:57:51.086Z,100152.00
2023-02-18T13:00:52.374Z,100144.00
2023-02-18T13:04:04.036Z,100142.00
2023-02-18T13:07:03.627Z,100125.00
2023-02-18T13:09:50.908Z,100131.00
2023-02-18T13:12:27.912Z,100126.00
2023-02-18T13:15:06.957Z,100132.00
2023-02-18T13:17:41.144Z,100108.00
2023-02-18T13:20:20.702Z,100105.00
2023-02-18T13:22:53.535Z,100109.00
2023-02-18T13:25:25.183Z,100106.00
2023-02-18T13:28:10.157Z,100100.00
2023-02-18T13:30:47.099Z,100086.00
2023-02-18T13:33:24.746Z,100090.00
2023-02-18T13:36:06.042Z,100090.00
2023-02-18T13:38:59.438Z,100087.00
2023-02-18T13:41:30.581Z,100099.00
2023-02-18T13:44:00.963Z,100087.00
2023-02-18T13:46:34.007Z,100091.00
2023-02-18T13:49:13.093Z,100092.00
2023-02-18T13:51:48.799Z,100091.00
2023-02-18T13:54:27.968Z,100066.00
2023-02-18T13:57:03.964Z,100064.00
2023-02-18T13:59:39.141Z,100056.00
2023-02-18T14:02:36.598Z,100075.00
2023-02-18T14:05:25.435Z,100068.00
2023-02-18T14:08:09.453Z,100064.00
2023-02-18T14:10:41.450Z,100066.00
2023-02-18T14:13:28.879Z,100061.00
2023-02-18T14:16:03.125Z,100067.00
2023-02-18T14:19:03.171Z,100047.00
2023-02-18T14:21:46.515Z,100050.00
2023-02-18T14:24:16.681Z,100056.00
2023-02-18T14:26:49.326Z,100064.00
2023-02-18T14:29:30.634Z,100059.00
2023-02-18T14:32:05.281Z,100075.00
2023-02-18T14:35:10.790Z,100070.00
2023-02-18T14:38:13.442Z,100099.00
2023-02-18T14:41:17.054Z,100087.00
2023-02-18T14:44:17.530Z,100080.00
2023-02-18T14:47:08.098Z,100066.00
2023-02-18T14:49:43.792Z,100053.00
2023-02-18T14:52:33.141Z,100083.00
2023-02-18T14:55:06.589Z,100074.00
2023-02-18T14:57:42.637Z,100083.00
2023-02-18T15:00:20.926Z,100088.00
2023-02-18T15:02:54.075Z,100083.00
2023-02-18T15:05:27.262Z,100096.00
2023-02-18T15:08:10.788Z,100085.00
2023-02-18T15:10:44.575Z,100080.00
2023-02-18T15:13:21.393Z,100085.00
2023-02-18T15:15:55.156Z,100066.00
2023-02-18T15:18:32.909Z,100084.00
2023-02-18T15:21:04.700Z,100093.00
2023-02-18T15:23:39.465Z,100099.00
2023-02-18T15:26:11.517Z,100110.00
2023-02-18T15:28:54.890Z,100110.00
2023-02-18T15:31:29.607Z,100109.00
2023-02-18T15:33:59.535Z,100111.00
2023-02-18T15:36:29.837Z,100113.00
2023-02-18T15:39:04.056Z,100142.00
2023-02-18T15:41:34.793Z,100135.00
2023-02-18T15:44:08.329Z,100137.00
2023-02-18T15:46:38.322Z,100145.00
2023-02-18T15:49:11.280Z,100159.00
2023-02-18T15:51:41.160Z,100189.00
2023-02-18T15:54:21.973Z,100198.00
2023-02-18T15:56:55.656Z,100188.00
2023-02-18T15:59:30.974Z,100188.00
2023-02-18T16:02:15.152Z,100210.00
2023-02-18T16:04:51.725Z,100211.00
2023-02-18T16:07:29.940Z,100228.00
2023-02-18T16:10:22.250Z,100229.00
2023-02-18T16:12:56.023Z,100229.00
2023-02-18T16:15:30.151Z,100242.00
2023-02-18T16:18:00.513Z,100250.00
2023-02-18T16:20:36.137Z,100256.00
2023-02-18T16:23:13.768Z,100259.00
2023-02-18T16:25:50.663Z,100272.00
2023-02-18T16:28:28.030Z,100281.00
2023-02-18T16:30:57.913Z,100282.00
2023-02-18T16:33:27.799Z,100286.00
2023-02-18T16:35:57.886Z,100291.00
2023-02-18T16:38:28.618Z,100297.00
2023-02-18T16:41:01.037Z,100298.00
2023-02-18T16:43:32.797Z,100319.00
2023-02-18T16:46:11.559Z,100319.00
2023-02-18T16:48:44.625Z,100319.00
2023-02-18T16:51:18.579Z,100330.00
2023-02-18T16:53:48.617Z,100334.00
2023-02-18T16:56:24.035Z,100333.00
2023-02-18T16:58:54.637Z,100339.00
2023-02-18T17:01:28.784Z,100349.00
2023-02-18T17:03:59.850Z,100360.00
2023-02-18T17:06:30.797Z,100376.00
2023-02-18T17:09:01.409Z,100385.00
2023-02-18T17:11:37.800Z,100391.00
2023-02-18T17:14:07.650Z,100396.00
2023-02-18T17:16:37.543Z,100406.00
2023-02-18T17:19:07.423Z,100418.00
2023-02-18T17:21:37.294Z,100430.00
2023-02-18T17:24:08.091Z,100439.00
2023-02-18T17:26:40.526Z,100447.00
2023-02-18T17:29:10.393Z,100451.00
2023-02-18T17:31:44.728Z,100472.00
2023-02-18T17:34:20.613Z,100466.00
2023-02-18T17:36:50.758Z,100476.00
2023-02-18T17:39:21.096Z,100475.00
2023-02-18T17:41:53.846Z,100488.00
2023-02-18T17:44:26.231Z,100490.00
2023-02-18T17:46:56.107Z,100498.00
2023-02-18T17:49:25.944Z,100499.00
2023-02-18T17:51:58.018Z,100508.00
2023-02-18T17:54:28.718Z,100515.00
2023-02-18T17:57:01.254Z,100511.00
2023-02-18T17:59:31.191Z,100527.00
2023-02-18T18:02:01.033Z,100517.00
2023-02-18T18:04:30.948Z,100526.00
2023-02-18T18:07:00.818Z,100527.00
2023-02-18T18:09:30.628Z,100534.00
2023-02-18T18:12:03.090Z,100547.00
2023-02-18T18:14:32.914Z,100547.00
2023-02-18T18:17:03.010Z,100557.00
2023-02-18T18:19:33.848Z,100552.00
2023-02-18T18:22:03.690Z,100564.00
2023-02-18T18:24:33.537Z,100571.00
2023-02-18T18:27:05.986Z,100567.00
2023-02-18T18:29:35.819Z,100578.00
2023-02-18T18:32:05.698Z,100583.00
2023-02-18T18:34:35.768Z,100578.00
2023-02-18T18:37:05.598Z,100590.00
2023-02-18T18:39:35.426Z,100601.00
2023-02-18T18:42:08.161Z,100597.00
2023-02-18T18:44:37.990Z,100597.00
2023-02-18T18:47:07.936Z,100603.00
2023-02-18T18:49:38.945Z,100601.00
2023-02-18T18:52:08.969Z,100607.00
2023-02-18T18:54:41.349Z,100613.00
2023-02-18T18:57:13.781Z,100618.00
2023-02-18T18:59:43.620Z,100612.00
2023-02-18T19:02:19.807Z,100613.00
2023-02-18T19:04:49.649Z,100612.00
2023-02-18T19:07:19.486Z,100617.00
2023-02-18T19:09:49.382Z,100624.00
2023-02-18T19:12:21.829Z,100625.00
2023-02-18T19:14:51.721Z,100636.00
2023-02-18T19:17:21.618Z,100631.00
2023-02-18T19:19:51.522Z,100627.00
2023-02-18T19:22:21.382Z,100636.00
2023-02-18T19:24:51.257Z,100639.00
2023-02-18T19:27:23.742Z,100647.00
2023-02-18T19:29:54.364Z,100649.00
2023-02-18T19:32:24.231Z,100649.00
2023-02-18T19:34:54.073Z,100658.00
2023-02-18T19:37:24.700Z,100666.00
2023-02-18T19:39:54.826Z,100657.00
2023-02-18T19:42:27.375Z,100666.00
2023-02-18T19:44:57.648Z,100657.00
2023-02-18T19:47:28.839Z,100668.00
2023-02-18T19:50:00.903Z,100662.00
2023-02-18T19:52:31.449Z,100666.00
2023-02-18T19:55:01.565Z,100661.00
2023-02-18T19:57:34.786Z,100671.00
2023-02-18T20:00:04.923Z,100677.00
2023-02-18T20:02:34.800Z,100679.00
2023-02-18T20:05:04.717Z,100677.00
2023-02-18T20:07:34.582Z,100682.00
2023-02-18T20:10:04.677Z,100690.00
2023-02-18T20:12:37.155Z,100697.00
2023-02-18T20:15:08.395Z,100691.00
2023-02-18T20:17:38.342Z,100705.00
2023-02-18T20:20:09.811Z,100700.00
2023-02-18T20:22:39.671Z,100699.00
2023-02-18T20:25:10.202Z,100691.00
2023-02-18T20:27:59.475Z,100699.00
2023-02-18T20:30:30.689Z,100697.00
2023-02-18T20:33:00.731Z,100700.00
2023-02-18T20:35:30.633Z,100721.00
2023-02-18T20:38:00.594Z,100713.00
2023-02-18T20:40:30.695Z,100727.00
2023-02-18T20:43:03.154Z,100725.00
2023-02-18T20:45:33.004Z,100727.00
2023-02-18T20:48:02.827Z,100725.00
2023-02-18T20:50:32.696Z,100727.00
2023-02-18T20:53:02.534Z,100736.00
2023-02-18T20:55:32.391Z,100725.00
2023-02-18T20:58:04.871Z,100731.00
2023-02-18T21:00:34.747Z,100737.00
2023-02-18T21:03:04.641Z,100742.00
2023-02-18T21:05:34.555Z,100734.00
2023-02-18T21:08:04.366Z,100740.00
2023-02-18T21:10:34.216Z,100753.00
2023-02-18T21:13:06.669Z,100746.00
2023-02-18T21:15:39.360Z,100730.00
2023-02-18T21:18:09.316Z,100737.00
2023-02-18T21:20:39.176Z,100739.00
2023-02-18T21:23:09.156Z,100728.00
2023-02-18T21:25:40.826Z,100744.00
2023-02-18T21:28:13.276Z,100742.00
2023-02-18T21:30:46.941Z,100739.00
2023-02-18T21:33:17.034Z,100744.00
2023-02-18T21:35:49.020Z,100742.00
2023-02-18T21:38:18.886Z,100748.00
2023-02-18T21:40:49.570Z,100747.00
2023-02-18T21:43:21.988Z,100752.00
2023-02-18T21:45:51.845Z,100753.00
2023-02-18T21:48:34.238Z,100743.00
2023-02-18T21:51:04.696Z,100741.00
2023-02-18T21:53:34.754Z,100749.00
2023-02-18T21:56:13.539Z,100756.00
2023-02-18T21:58:48.941Z,100756.00
2023-02-18T22:01:18.851Z,100747.00
2023-02-18T22:03:48.867Z,100743.00
2023-02-18T22:06:18.735Z,100748.00
2023-02-18T22:08:48.641Z,100738.00
2023-02-18T22:11:18.981Z,100749.00
2023-02-18T22:13:51.623Z,100744.00
2023-02-18T22:16:21.548Z,100748.00
2023-02-18T22:18:51.549Z,100757.00
2023-02-18T22:21:21.425Z,100757.00
2023-02-18T22:23:51.436Z,100758.00
2023-02-18T22:26:21.592Z,100772.00
2023-02-18T22:28:58.961Z,100759.00
2023-02-18T22:31:31.709Z,100755.00
2023-02-18T22:34:03.063Z,100756.00
2023-02-18T22:36:33.567Z,100763.00
2023-02-18T22:39:04.706Z,100763.00
2023-02-18T22:41:36.241Z,100770.00
2023-02-18T22:44:11.208Z,100752.00
2023-02-18T22:46:42.335Z,100766.00
2023-02-18T22:49:12.391Z,100761.00
2023-02-18T22:51:45.044Z,100760.00
2023-02-18T22:54:17.591Z,100756.00
2023-02-18T22:56:48.388Z,100762.00
2023-02-18T22:59:21.604Z,100770.00
2023-02-18T23:01:53.307Z,100768.00
2023-02-18T23:04:23.865Z,100761.00
2023-02-18T23:06:54.815Z,100762.00
2023-02-18T23:09:28.142Z,100755.00
2023-02-18T23:12:00.685Z,100754.00
2023-02-18T23:14:33.185Z,100757.00
2023-02-18T23:17:17.697Z,100763.00
2023-02-18T23:19:49.772Z,100762.00
2023-02-18T23:22:22.994Z,100748.00
2023-02-18T23:24:52.903Z,100752.00
2023-02-18T23:27:24.309Z,100749.00
2023-02-18T23:29:57.749Z,100740.00
2023-02-18T23:32:28.953Z,100748.00
2023-02-18T23:34:58.821Z,100750.00
2023-02-18T23:37:43.381Z,100752.00
2023-02-18T23:40:15.071Z,100756.00
2023-02-18T23:42:44.913Z,100747.00
2023-02-18T23:45:17.657Z,100747.00
2023-02-18T23:47:47.546Z,100736.00
2023-02-18T23:50:18.439Z,100733.00
2023-02-18T23:52:51.469Z,100736.00
2023-02-18T23:55:21.385Z,100734.00
2023-02-18T23:57:51.268Z,100741.00
